createdAt,value
2018-09-28T00:02:10.308Z,92.50
2018-09-28T00:04:38.568Z,92.80
2018-09-28T00:07:06.819Z,93.00
2018-09-28T00:09:35.123Z,93.10
2018-09-28T00:12:03.372Z,93.40
2018-09-28T00:14:31.631Z,93.30
2018-09-28T00:16:59.984Z,93.50
2018-09-28T00:19:28.243Z,93.20
2018-09-28T00:21:56.509Z,93.40
2018-09-28T00:24:24.855Z,93.40
2018-09-28T00:26:53.111Z,93.60
2018-09-28T00:29:21.360Z,93.70
2018-09-28T00:31:49.617Z,93.60
2018-09-28T00:34:17.883Z,93.60
2018-09-28T00:36:46.141Z,93.60
2018-09-28T00:39:14.408Z,93.30
2018-09-28T00:41:42.673Z,93.30
2018-09-28T00:44:10.936Z,93.40
2018-09-28T00:46:39.224Z,93.20
2018-09-28T00:49:07.516Z,93.30
2018-09-28T00:51:35.768Z,93.30
2018-09-28T00:54:04.030Z,93.20
2018-09-28T00:56:32.292Z,93.10
2018-09-28T00:59:00.557Z,93.20
2018-09-28T01:01:28.826Z,93.20
2018-09-28T01:03:57.081Z,93.30
2018-09-28T01:06:25.337Z,93.40
2018-09-28T01:08:53.610Z,93.60
2018-09-28T01:11:21.856Z,93.50
2018-09-28T01:13:50.112Z,93.90
2018-09-28T01:16:18.393Z,93.60
2018-09-28T01:18:46.664Z,93.70
2018-09-28T01:21:14.937Z,93.80
2018-09-28T01:23:43.208Z,93.90
2018-09-28T01:26:11.469Z,93.90
2018-09-28T01:28:39.753Z,94.10
2018-09-28T01:31:08.026Z,94.10
2018-09-28T01:33:36.293Z,94.20
2018-09-28T01:36:04.549Z,94.20
2018-09-28T01:38:32.825Z,94.40
2018-09-28T01:41:01.086Z,94.40
2018-09-28T01:43:29.379Z,94.40
2018-09-28T01:45:57.649Z,94.70
2018-09-28T01:48:25.927Z,95.00
2018-09-28T01:50:54.200Z,95.50
2018-09-28T01:53:22.485Z,95.60
2018-09-28T01:55:50.787Z,95.40
2018-09-28T01:58:19.063Z,95.30
2018-09-28T02:00:47.332Z,95.10
2018-09-28T02:03:15.612Z,95.10
2018-09-28T02:05:43.869Z,95.10
2018-09-28T02:08:12.179Z,95.10
2018-09-28T02:10:40.445Z,95.00
2018-09-28T02:13:08.750Z,94.70
2018-09-28T02:15:37.044Z,95.00
2018-09-28T02:18:05.353Z,94.50
2018-09-28T02:20:33.608Z,94.40
2018-09-28T02:23:01.861Z,94.20
2018-09-28T02:25:30.145Z,94.50
2018-09-28T02:27:58.423Z,94.30
2018-09-28T02:30:26.669Z,94.40
2018-09-28T02:32:54.932Z,94.60
2018-09-28T02:35:23.200Z,94.90
2018-09-28T02:37:51.473Z,95.60
2018-09-28T02:40:19.733Z,96.00
2018-09-28T02:42:47.988Z,95.80
2018-09-28T02:45:16.250Z,95.30
2018-09-28T02:47:44.528Z,95.30
2018-09-28T02:50:12.811Z,95.20
2018-09-28T02:52:41.072Z,95.10
2018-09-28T02:55:09.343Z,95.00
2018-09-28T02:57:37.645Z,95.10
2018-09-28T03:00:05.940Z,95.10
2018-09-28T03:02:34.329Z,94.90
2018-09-28T03:05:02.665Z,94.60
2018-09-28T03:07:30.943Z,94.40
2018-09-28T03:09:59.203Z,94.30
2018-09-28T03:12:27.460Z,94.10
2018-09-28T03:14:55.717Z,94.00
2018-09-28T03:17:24.307Z,93.70
2018-09-28T03:19:52.622Z,93.60
2018-09-28T03:22:20.909Z,93.40
2018-09-28T03:24:49.181Z,93.40
2018-09-28T03:27:17.442Z,93.30
2018-09-28T03:29:45.720Z,93.30
2018-09-28T03:32:13.992Z,93.50
2018-09-28T03:34:42.279Z,93.60
2018-09-28T03:37:10.536Z,93.20
2018-09-28T03:39:38.940Z,93.00
2018-09-28T03:42:07.192Z,92.70
2018-09-28T03:44:35.457Z,92.60
2018-09-28T03:47:03.779Z,92.50
2018-09-28T03:49:32.052Z,92.30
2018-09-28T03:52:00.298Z,92.30
2018-09-28T03:54:28.576Z,92.40
2018-09-28T03:56:56.853Z,92.30
2018-09-28T03:59:25.129Z,92.20
2018-09-28T04:01:53.379Z,92.20
2018-09-28T04:04:21.626Z,92.10
2018-09-28T04:06:49.933Z,92.30
2018-09-28T04:09:18.193Z,92.10
2018-09-28T04:11:46.446Z,92.00
2018-09-28T04:14:14.716Z,91.80
2018-09-28T04:16:42.984Z,91.70
2018-09-28T04:19:11.240Z,91.50
2018-09-28T04:21:39.508Z,91.30
2018-09-28T04:24:07.826Z,91.20
2018-09-28T04:26:36.096Z,91.10
2018-09-28T04:29:04.376Z,91.10
2018-09-28T04:31:32.639Z,91.10
2018-09-28T04:34:00.888Z,91.00
2018-09-28T04:36:29.164Z,90.80
2018-09-28T04:38:57.429Z,90.60
2018-09-28T04:41:25.704Z,90.40
2018-09-28T04:43:53.965Z,90.30
2018-09-28T04:46:22.237Z,90.20
2018-09-28T04:48:50.490Z,90.20
2018-09-28T04:51:18.752Z,89.90
2018-09-28T04:53:47.013Z,89.40
2018-09-28T04:56:15.297Z,89.30
2018-09-28T04:58:43.548Z,89.40
2018-09-28T05:01:11.824Z,89.30
2018-09-28T05:03:40.081Z,89.30
2018-09-28T05:06:08.369Z,89.10
2018-09-28T05:08:36.885Z,88.90
2018-09-28T05:11:05.153Z,88.70
2018-09-28T05:13:33.441Z,88.80
2018-09-28T05:16:01.746Z,88.90
2018-09-28T05:18:30.028Z,88.90
2018-09-28T05:20:58.307Z,88.30
2018-09-28T05:23:26.576Z,87.80
2018-09-28T05:25:54.843Z,87.50
2018-09-28T05:28:23.101Z,87.20
2018-09-28T05:30:53.963Z,86.70
2018-09-28T05:33:19.684Z,86.80
2018-09-28T05:35:47.941Z,86.30
2018-09-28T05:38:16.200Z,86.20
2018-09-28T05:40:44.472Z,85.70
2018-09-28T05:43:12.787Z,85.50
2018-09-28T05:45:41.064Z,85.30
2018-09-28T05:48:09.322Z,85.40
2018-09-28T05:50:37.567Z,85.30
2018-09-28T05:53:05.862Z,85.00
2018-09-28T05:55:34.128Z,85.20
2018-09-28T05:58:07.805Z,85.10
2018-09-28T06:00:41.391Z,85.10
2018-09-28T06:03:14.368Z,85.40
2018-09-28T06:05:43.997Z,85.20
2018-09-28T06:08:12.908Z,85.30
2018-09-28T06:10:41.172Z,85.40
2018-09-28T06:13:09.436Z,85.10
2018-09-28T06:15:37.732Z,85.50
2018-09-28T06:18:06.034Z,85.50
2018-09-28T06:20:34.288Z,85.30
2018-09-28T06:23:02.561Z,85.30
2018-09-28T06:25:30.867Z,85.30
2018-09-28T06:27:59.165Z,85.30
2018-09-28T06:30:27.429Z,85.20
2018-09-28T06:32:55.723Z,85.10
2018-09-28T06:35:24.000Z,85.70
2018-09-28T06:37:52.380Z,84.80
2018-09-28T06:40:20.644Z,84.10
2018-09-28T06:42:48.944Z,84.00
2018-09-28T06:45:17.196Z,83.40
2018-09-28T06:47:45.518Z,83.20
2018-09-28T06:50:13.765Z,82.90
2018-09-28T06:52:42.048Z,82.50
2018-09-28T06:55:10.304Z,82.20
2018-09-28T06:57:38.797Z,81.50
2018-09-28T07:00:07.905Z,81.40
2018-09-28T07:02:36.313Z,80.90
2018-09-28T07:05:04.568Z,80.30
2018-09-28T07:07:32.892Z,79.80
2018-09-28T07:10:01.184Z,79.30
2018-09-28T07:12:29.441Z,79.10
2018-09-28T07:14:57.700Z,77.90
2018-09-28T07:17:25.956Z,77.60
2018-09-28T07:19:54.221Z,77.80
2018-09-28T07:22:22.519Z,77.60
2018-09-28T07:24:50.822Z,76.60
2018-09-28T07:27:19.213Z,75.80
2018-09-28T07:29:47.534Z,75.10
2018-09-28T07:32:15.772Z,75.20
2018-09-28T07:34:44.044Z,75.50
2018-09-28T07:37:12.491Z,75.80
2018-09-28T07:39:40.597Z,75.30
2018-09-28T07:42:08.916Z,75.20
2018-09-28T07:44:37.325Z,74.60
2018-09-28T07:47:05.924Z,74.60
2018-09-28T07:49:34.298Z,73.30
2018-09-28T07:52:02.564Z,72.70
2018-09-28T07:54:30.817Z,71.80
2018-09-28T07:56:59.092Z,68.50
2018-09-28T07:59:27.336Z,67.60
2018-09-28T08:01:55.594Z,66.50
2018-09-28T08:04:23.850Z,65.50
2018-09-28T08:06:52.104Z,66.60
2018-09-28T08:09:20.389Z,66.30
2018-09-28T08:11:48.700Z,65.00
2018-09-28T08:14:17.182Z,64.90
2018-09-28T08:16:45.437Z,65.40
2018-09-28T08:19:13.708Z,66.10
2018-09-28T08:21:41.966Z,67.00
2018-09-28T08:24:10.221Z,67.40
2018-09-28T08:26:38.472Z,68.20
2018-09-28T08:29:06.739Z,70.00
2018-09-28T08:31:35.016Z,69.10
2018-09-28T08:34:03.263Z,69.60
2018-09-28T08:36:31.625Z,69.50
2018-09-28T08:38:59.812Z,70.30
2018-09-28T08:41:28.069Z,69.20
2018-09-28T08:43:56.332Z,67.20
2018-09-28T08:46:24.589Z,66.30
2018-09-28T08:48:52.905Z,66.30
2018-09-28T08:51:21.159Z,66.20
2018-09-28T08:53:49.404Z,65.30
2018-09-28T08:56:17.667Z,65.10
2018-09-28T08:58:45.922Z,63.60
2018-09-28T09:01:14.184Z,62.70
2018-09-28T09:03:42.456Z,61.50
2018-09-28T09:06:10.717Z,61.00
2018-09-28T09:08:38.968Z,59.30
2018-09-28T09:11:07.285Z,58.60
2018-09-28T09:13:35.544Z,57.50
2018-09-28T09:16:03.793Z,57.20
2018-09-28T09:18:32.069Z,56.20
2018-09-28T09:21:00.330Z,54.80
2018-09-28T09:23:28.601Z,53.10
2018-09-28T09:25:56.893Z,52.00
2018-09-28T09:28:25.152Z,52.40
2018-09-28T09:30:53.397Z,54.40
2018-09-28T09:33:21.656Z,54.60
2018-09-28T09:35:49.920Z,55.70
2018-09-28T09:38:18.162Z,57.40
2018-09-28T09:40:46.456Z,58.70
2018-09-28T09:43:14.696Z,58.80
2018-09-28T09:45:42.958Z,59.10
2018-09-28T09:48:11.248Z,59.40
2018-09-28T09:50:39.512Z,59.10
2018-09-28T09:53:07.819Z,58.80
2018-09-28T09:55:36.078Z,59.60
2018-09-28T09:58:04.368Z,57.60
2018-09-28T10:00:37.927Z,57.90
2018-09-28T10:03:11.461Z,57.70
2018-09-28T10:05:39.736Z,56.50
2018-09-28T10:08:08.016Z,55.30
2018-09-28T10:10:36.281Z,52.50
2018-09-28T10:13:04.537Z,50.40
2018-09-28T10:15:32.830Z,49.60
2018-09-28T10:18:01.094Z,50.70
2018-09-28T10:20:29.351Z,51.40
2018-09-28T10:22:57.609Z,52.20
2018-09-28T10:25:25.865Z,52.80
2018-09-28T10:27:54.165Z,53.60
2018-09-28T10:30:22.396Z,53.10
2018-09-28T10:32:50.683Z,50.60
2018-09-28T10:35:18.940Z,46.80
2018-09-28T10:37:47.203Z,46.10
2018-09-28T10:40:15.515Z,45.70
2018-09-28T10:42:43.737Z,45.30
2018-09-28T10:45:11.995Z,46.00
2018-09-28T10:47:40.260Z,45.70
2018-09-28T10:50:08.536Z,46.80
2018-09-28T10:52:36.844Z,46.90
2018-09-28T10:55:05.156Z,47.50
2018-09-28T10:57:33.411Z,48.20
2018-09-28T11:00:01.667Z,47.30
2018-09-28T11:02:29.964Z,47.30
2018-09-28T11:04:58.226Z,48.60
2018-09-28T11:07:26.485Z,49.30
2018-09-28T11:09:54.736Z,50.20
2018-09-28T11:12:23.024Z,50.10
2018-09-28T11:14:51.317Z,49.90
2018-09-28T11:17:19.608Z,50.30
2018-09-28T11:19:47.873Z,51.60
2018-09-28T11:22:16.161Z,50.40
2018-09-28T11:24:44.432Z,49.80
2018-09-28T11:27:12.761Z,49.90
2018-09-28T11:29:40.980Z,50.00
2018-09-28T11:32:09.447Z,50.40
2018-09-28T11:34:37.734Z,49.60
2018-09-28T11:37:05.992Z,49.40
2018-09-28T11:39:34.283Z,50.10
2018-09-28T11:42:02.537Z,51.60
2018-09-28T11:44:30.868Z,52.20
2018-09-28T11:46:59.112Z,54.10
2018-09-28T11:49:27.364Z,55.20
2018-09-28T11:51:55.621Z,55.00
2018-09-28T11:54:23.924Z,53.40
2018-09-28T11:56:52.164Z,52.70
2018-09-28T11:59:20.681Z,52.10
2018-09-28T12:01:48.996Z,51.30
2018-09-28T12:04:17.260Z,52.40
2018-09-28T12:06:45.541Z,52.10
2018-09-28T12:09:13.927Z,51.70
2018-09-28T12:11:42.850Z,50.10
2018-09-28T12:14:11.124Z,50.30
2018-09-28T12:16:39.399Z,51.40
2018-09-28T12:19:07.671Z,60.70
2018-09-28T12:21:35.973Z,56.30
2018-09-28T12:24:04.225Z,54.50
2018-09-28T12:26:32.511Z,54.20
2018-09-28T12:29:01.113Z,55.20
2018-09-28T12:31:29.383Z,54.90
2018-09-28T12:33:57.645Z,55.10
2018-09-28T12:36:25.931Z,58.10
2018-09-28T12:38:54.229Z,59.40
2018-09-28T12:41:22.513Z,59.50
2018-09-28T12:43:50.752Z,60.00
2018-09-28T12:46:19.016Z,60.50
2018-09-28T12:48:47.290Z,60.60
2018-09-28T12:51:15.542Z,60.90
2018-09-28T12:53:43.837Z,60.20
2018-09-28T12:56:12.095Z,61.20
2018-09-28T12:58:40.364Z,61.20
2018-09-28T13:01:08.778Z,60.70
2018-09-28T13:03:36.934Z,60.50
2018-09-28T13:06:05.211Z,60.10
2018-09-28T13:08:33.487Z,59.80
2018-09-28T13:11:01.861Z,58.70
2018-09-28T13:13:30.123Z,59.10
2018-09-28T13:15:58.370Z,60.10
2018-09-28T13:18:26.733Z,61.00
2018-09-28T13:20:54.924Z,60.50
2018-09-28T13:23:23.200Z,60.90
2018-09-28T13:25:51.452Z,61.00
2018-09-28T13:28:19.748Z,60.60
2018-09-28T13:30:48.092Z,60.20
2018-09-28T13:33:16.304Z,60.60
2018-09-28T13:35:44.556Z,60.20
2018-09-28T13:38:12.851Z,59.70
2018-09-28T13:40:41.287Z,58.40
2018-09-28T13:43:09.561Z,55.80
2018-09-28T13:45:37.858Z,51.90
2018-09-28T13:48:06.354Z,52.30
2018-09-28T13:50:34.710Z,51.80
2018-09-28T13:53:02.925Z,52.00
2018-09-28T13:55:31.173Z,51.90
2018-09-28T13:57:59.441Z,52.30
2018-09-28T14:00:27.823Z,53.10
2018-09-28T14:02:56.029Z,53.60
2018-09-28T14:05:24.305Z,54.50
2018-09-28T14:07:52.589Z,56.10
2018-09-28T14:10:20.868Z,58.00
2018-09-28T14:12:49.181Z,57.10
2018-09-28T14:15:17.443Z,53.60
2018-09-28T14:17:45.732Z,54.30
2018-09-28T14:20:14.055Z,54.60
2018-09-28T14:22:42.378Z,54.60
2018-09-28T14:25:10.630Z,56.30
2018-09-28T14:27:38.880Z,56.80
2018-09-28T14:30:07.184Z,58.00
2018-09-28T14:32:35.512Z,58.80
2018-09-28T14:35:03.761Z,59.00
2018-09-28T14:37:32.014Z,60.20
2018-09-28T14:40:00.264Z,61.70
2018-09-28T14:42:28.541Z,62.00
2018-09-28T14:44:56.808Z,62.80
2018-09-28T14:47:25.086Z,62.10
2018-09-28T14:49:53.343Z,60.80
2018-09-28T14:52:21.655Z,61.60
2018-09-28T14:54:50.047Z,61.10
2018-09-28T14:57:18.293Z,60.60
2018-09-28T14:59:46.569Z,59.60
2018-09-28T15:02:14.868Z,60.20
2018-09-28T15:04:43.159Z,61.30
2018-09-28T15:07:11.604Z,61.70
2018-09-28T15:09:39.864Z,59.40
2018-09-28T15:12:08.173Z,59.00
2018-09-28T15:14:36.484Z,59.60
2018-09-28T15:17:04.707Z,60.00
2018-09-28T15:19:33.012Z,61.10
2018-09-28T15:22:02.180Z,61.60
2018-09-28T15:24:30.479Z,62.50
2018-09-28T15:26:58.780Z,63.00
2018-09-28T15:29:27.096Z,63.00
2018-09-28T15:31:55.381Z,63.10
2018-09-28T15:34:23.653Z,63.60
2018-09-28T15:36:51.908Z,63.90
2018-09-28T15:39:20.188Z,63.60
2018-09-28T15:41:48.466Z,64.70
2018-09-28T15:44:16.743Z,63.80
2018-09-28T15:46:45.017Z,63.20
2018-09-28T15:49:13.287Z,62.00
2018-09-28T15:51:41.542Z,62.50
2018-09-28T15:54:09.797Z,62.30
2018-09-28T15:56:38.082Z,63.40
2018-09-28T15:59:06.380Z,63.70
2018-09-28T16:01:34.641Z,63.70
2018-09-28T16:04:02.912Z,64.20
2018-09-28T16:06:31.184Z,64.10
2018-09-28T16:08:59.447Z,64.40
2018-09-28T16:11:27.767Z,63.90
2018-09-28T16:13:56.042Z,64.30
2018-09-28T16:16:24.316Z,64.70
2018-09-28T16:18:52.580Z,65.90
2018-09-28T16:21:20.839Z,68.00
2018-09-28T16:23:49.096Z,70.10
2018-09-28T16:26:17.372Z,71.00
2018-09-28T16:28:45.624Z,71.60
2018-09-28T16:31:13.896Z,72.20
2018-09-28T16:33:42.162Z,73.20
2018-09-28T16:36:10.491Z,73.30
2018-09-28T16:38:38.700Z,74.00
2018-09-28T16:41:06.973Z,73.90
2018-09-28T16:43:35.228Z,73.80
2018-09-28T16:46:03.495Z,73.50
2018-09-28T16:48:31.759Z,73.50
2018-09-28T16:51:00.049Z,73.90
2018-09-28T16:53:28.324Z,74.10
2018-09-28T16:55:56.596Z,74.20
2018-09-28T16:58:24.864Z,73.60
2018-09-28T17:00:53.150Z,73.40
2018-09-28T17:03:21.420Z,73.70
2018-09-28T17:05:49.679Z,74.00
2018-09-28T17:08:17.946Z,73.90
2018-09-28T17:10:46.205Z,73.90
2018-09-28T17:13:14.472Z,74.10
2018-09-28T17:15:42.744Z,74.70
2018-09-28T17:18:11.020Z,75.30
2018-09-28T17:20:39.302Z,74.80
2018-09-28T17:23:07.560Z,75.20
2018-09-28T17:25:35.820Z,75.40
2018-09-28T17:28:04.128Z,75.20
2018-09-28T17:30:32.400Z,75.20
2018-09-28T17:33:00.668Z,75.00
2018-09-28T17:35:29.910Z,74.50
2018-09-28T17:37:58.176Z,74.10
2018-09-28T17:40:26.460Z,74.30
2018-09-28T17:42:54.769Z,74.20
2018-09-28T17:45:23.320Z,73.80
2018-09-28T17:47:51.600Z,73.10
2018-09-28T17:50:19.860Z,73.00
2018-09-28T17:52:48.326Z,73.20
2018-09-28T17:55:16.609Z,74.20
2018-09-28T17:57:45.032Z,74.10
2018-09-28T18:00:13.298Z,75.10
2018-09-28T18:02:41.584Z,75.20
2018-09-28T18:05:09.860Z,75.70
2018-09-28T18:07:38.120Z,75.50
2018-09-28T18:10:06.413Z,75.80
2018-09-28T18:12:34.683Z,75.60
2018-09-28T18:15:02.947Z,75.50
2018-09-28T18:17:31.259Z,75.80
2018-09-28T18:19:59.530Z,76.10
2018-09-28T18:22:27.843Z,76.50
2018-09-28T18:24:56.224Z,76.60
2018-09-28T18:27:24.586Z,76.50
2018-09-28T18:29:52.790Z,77.00
2018-09-28T18:32:21.039Z,76.80
2018-09-28T18:34:49.288Z,77.20
2018-09-28T18:37:17.599Z,77.40
2018-09-28T18:39:45.840Z,77.50
2018-09-28T18:42:14.122Z,77.40
2018-09-28T18:44:42.376Z,77.60
2018-09-28T18:47:10.648Z,78.00
2018-09-28T18:49:38.911Z,78.00
2018-09-28T18:52:07.179Z,78.40
2018-09-28T18:54:35.605Z,79.00
2018-09-28T18:57:03.885Z,79.20
2018-09-28T18:59:32.192Z,79.60
2018-09-28T19:02:00.445Z,79.80
2018-09-28T19:04:28.702Z,80.20
2018-09-28T19:06:56.965Z,80.40
2018-09-28T19:09:25.236Z,80.40
2018-09-28T19:11:53.504Z,80.90
2018-09-28T19:14:21.760Z,81.10
2018-09-28T19:16:50.036Z,80.80
2018-09-28T19:19:18.304Z,81.50
2018-09-28T19:21:46.571Z,81.60
2018-09-28T19:24:14.826Z,82.10
2018-09-28T19:26:43.101Z,82.40
2018-09-28T19:29:11.361Z,82.40
2018-09-28T19:31:39.803Z,83.00
2018-09-28T19:34:08.165Z,83.60
2018-09-28T19:36:36.434Z,83.60
2018-09-28T19:39:07.469Z,84.10
2018-09-28T19:41:35.729Z,84.60
2018-09-28T19:44:04.015Z,85.00
2018-09-28T19:46:32.322Z,85.40
2018-09-28T19:49:00.596Z,85.80
2018-09-28T19:51:28.852Z,86.20
2018-09-28T19:53:57.118Z,86.30
2018-09-28T19:56:25.376Z,86.60
2018-09-28T19:58:53.659Z,86.80
2018-09-28T20:01:21.924Z,87.30
2018-09-28T20:03:50.184Z,87.40
2018-09-28T20:06:18.479Z,87.30
2018-09-28T20:08:46.732Z,87.30
2018-09-28T20:11:14.996Z,87.70
2018-09-28T20:13:43.277Z,87.70
2018-09-28T20:16:11.545Z,88.10
2018-09-28T20:18:39.814Z,88.90
2018-09-28T20:21:08.072Z,89.30
2018-09-28T20:23:36.328Z,90.10
2018-09-28T20:26:04.593Z,90.30
2018-09-28T20:28:32.861Z,90.60
2018-09-28T20:31:01.116Z,90.80
2018-09-28T20:33:29.376Z,91.00
2018-09-28T20:35:57.624Z,91.10
2018-09-28T20:38:25.894Z,91.30
2018-09-28T20:40:54.160Z,91.50
2018-09-28T20:43:22.423Z,91.50
2018-09-28T20:45:50.677Z,91.80
2018-09-28T20:48:18.924Z,91.90
2018-09-28T20:50:47.174Z,92.00
2018-09-28T20:53:15.429Z,92.10
2018-09-28T20:55:43.710Z,92.60
2018-09-28T20:58:11.976Z,92.40
2018-09-28T21:00:40.234Z,92.30
2018-09-28T21:03:08.520Z,92.40
2018-09-28T21:05:36.892Z,92.50
2018-09-28T21:08:05.150Z,92.60
2018-09-28T21:10:33.401Z,92.60
2018-09-28T21:13:01.662Z,92.50
2018-09-28T21:15:30.084Z,92.60
2018-09-28T21:17:58.583Z,92.70
2018-09-28T21:20:26.856Z,92.50
2018-09-28T21:22:55.096Z,92.80
2018-09-28T21:25:23.344Z,92.80
2018-09-28T21:27:51.841Z,92.80
2018-09-28T21:30:20.093Z,92.70
2018-09-28T21:32:48.339Z,92.60
2018-09-28T21:35:16.659Z,92.70
2018-09-28T21:37:44.884Z,92.70
2018-09-28T21:40:13.189Z,92.70
2018-09-28T21:42:41.601Z,92.70
2018-09-28T21:45:09.844Z,92.60
2018-09-28T21:47:38.104Z,92.60
2018-09-28T21:50:06.476Z,92.70
2018-09-28T21:52:34.851Z,92.80
2018-09-28T21:55:03.148Z,93.00
2018-09-28T21:57:31.740Z,93.20
2018-09-28T22:00:00.178Z,93.30
2018-09-28T22:02:28.448Z,93.40
2018-09-28T22:04:56.765Z,93.40
2018-09-28T22:07:25.118Z,93.30
2018-09-28T22:09:53.373Z,93.50
2018-09-28T22:12:21.628Z,93.30
2018-09-28T22:14:49.884Z,93.10
2018-09-28T22:17:18.132Z,93.40
2018-09-28T22:19:46.408Z,93.60
2018-09-28T22:22:14.664Z,93.50
2018-09-28T22:24:42.920Z,93.50
2018-09-28T22:27:11.180Z,93.50
2018-09-28T22:29:39.456Z,93.50
2018-09-28T22:32:07.722Z,93.40
2018-09-28T22:34:35.984Z,93.40
2018-09-28T22:37:04.235Z,93.30
2018-09-28T22:39:32.508Z,93.30
2018-09-28T22:42:00.760Z,93.30
2018-09-28T22:44:29.028Z,93.50
2018-09-28T22:46:57.285Z,93.40
2018-09-28T22:49:25.548Z,93.40
2018-09-28T22:51:53.821Z,93.40
2018-09-28T22:54:22.065Z,93.30
2018-09-28T22:56:50.334Z,93.20
2018-09-28T22:59:18.587Z,93.20
2018-09-28T23:01:46.831Z,93.30
2018-09-28T23:04:15.095Z,93.30
2018-09-28T23:06:43.340Z,93.40
2018-09-28T23:09:11.636Z,93.60
2018-09-28T23:11:39.886Z,93.80
2018-09-28T23:14:08.152Z,94.00
2018-09-28T23:16:36.436Z,93.90
2018-09-28T23:19:04.690Z,93.80
2018-09-28T23:21:32.998Z,93.80
2018-09-28T23:24:01.224Z,93.80
2018-09-28T23:26:29.495Z,93.80
2018-09-28T23:28:57.768Z,93.80
2018-09-28T23:31:26.153Z,93.90
2018-09-28T23:33:54.404Z,94.00
2018-09-28T23:36:22.685Z,94.10
2018-09-28T23:38:50.940Z,94.00
2018-09-28T23:41:19.197Z,93.80
2018-09-28T23:43:47.464Z,94.00
2018-09-28T23:46:15.712Z,94.00
2018-09-28T23:48:43.964Z,93.90
2018-09-28T23:51:12.244Z,94.10
2018-09-28T23:53:40.496Z,94.20
2018-09-28T23:56:08.893Z,94.40
2018-09-28T23:58:37.166Z,94.60
